Time;durP1;ratioP1;P1;durP2;ratioP2;P2;SDS_P1;SDS_P2;PMS_P1;PMS_P2;Temp;Humidity;BMP_temperature;BMP_pressure;BME280_temperature;BME280_humidity;BME280_pressure;Samples;Min_cycle;Max_cycle;Signal;HPM_P1;HPM_P2
2023/07/05 00:01:27;;;;;;;6.05;5.45;;;;;;;14.97;100.00;100277.72;5035994;28;20036;-74
2023/07/05 00:03:53;;;;;;;7.05;5.25;;;;;;;14.91;100.00;100271.81;5028079;28;20491;-70
2023/07/05 00:06:18;;;;;;;7.55;5.93;;;;;;;14.86;100.00;100254.41;5041550;28;20036;-73
2023/07/05 00:08:44;;;;;;;5.72;5.05;;;;;;;14.89;100.00;100249.66;5032901;28;20034;-74
2023/07/05 00:11:11;;;;;;;7.25;5.72;;;;;;;14.86;100.00;100249.91;5031236;28;20033;-72
2023/07/05 00:13:36;;;;;;;6.18;4.80;;;;;;;14.89;100.00;100238.09;5036482;28;20168;-71
2023/07/05 00:16:02;;;;;;;6.97;5.38;;;;;;;14.89;100.00;100222.88;5034053;28;20096;-68
2023/07/05 00:18:28;;;;;;;5.90;5.25;;;;;;;14.89;100.00;100219.34;5035944;28;20594;-68
2023/07/05 00:21:06;;;;;;;6.45;5.10;;;;;;;14.86;100.00;100204.34;5031872;28;20032;-68
2023/07/05 00:23:33;;;;;;;6.15;5.35;;;;;;;14.82;100.00;100191.31;5034141;28;20022;-71
2023/07/05 00:25:59;;;;;;;7.28;5.13;;;;;;;14.81;100.00;100186.94;5031724;28;20403;-68
2023/07/05 00:28:25;;;;;;;6.50;5.18;;;;;;;14.81;100.00;100176.22;5037432;28;20029;-74
2023/07/05 00:30:51;;;;;;;6.00;4.97;;;;;;;14.81;100.00;100170.88;5025655;28;20040;-70
2023/07/05 00:33:16;;;;;;;6.43;4.88;;;;;;;14.78;100.00;100176.47;5034037;28;20033;-73
2023/07/05 00:35:47;;;;;;;9.90;5.53;;;;;;;14.85;100.00;100170.50;5033220;28;20395;-68
2023/07/05 00:38:13;;;;;;;7.45;5.45;;;;;;;14.79;100.00;100154.91;5038902;28;20122;-67
2023/07/05 00:40:38;;;;;;;7.20;5.40;;;;;;;14.79;100.00;100143.34;5024157;28;20135;-71
2023/07/05 00:43:04;;;;;;;9.35;5.53;;;;;;;14.75;100.00;100118.63;5029330;28;20041;-72
2023/07/05 00:45:42;;;;;;;7.47;5.05;;;;;;;14.67;100.00;100105.88;5030734;28;20048;-68
2023/07/05 00:48:13;;;;;;;7.25;4.57;;;;;;;14.62;100.00;100123.25;5029517;28;20037;-73
2023/07/05 00:50:42;;;;;;;5.95;4.90;;;;;;;14.63;100.00;100131.19;5031348;28;20406;-68
2023/07/05 00:53:08;;;;;;;6.07;4.55;;;;;;;14.63;100.00;100135.66;5028866;28;20036;-73
2023/07/05 00:55:34;;;;;;;7.22;4.93;;;;;;;14.68;100.00;100133.50;5036634;28;20541;-70
2023/07/05 00:58:02;;;;;;;5.90;5.10;;;;;;;14.65;100.00;100128.38;5035100;28;20029;-67
2023/07/05 01:00:29;;;;;;;8.45;5.20;;;;;;;14.58;100.00;100124.47;5035783;28;20029;-74
2023/07/05 01:02:56;;;;;;;7.15;4.95;;;;;;;14.51;100.00;100104.53;5028785;28;20162;-72
2023/07/05 01:05:24;;;;;;;5.38;4.75;;;;;;;14.60;100.00;100120.69;5034409;28;20513;-71
2023/07/05 01:07:49;;;;;;;5.97;5.30;;;;;;;14.60;100.00;100109.16;5027699;28;20151;-74
2023/07/05 01:10:22;;;;;;;6.85;5.13;;;;;;;14.62;100.00;100112.53;5030960;28;20103;-72
2023/07/05 01:12:56;;;;;;;5.90;5.15;;;;;;;14.64;100.00;100113.28;5035651;28;20025;-73
2023/07/05 01:15:31;;;;;;;5.90;4.82;;;;;;;14.64;100.00;100107.94;5037347;28;20374;-69
2023/07/05 01:18:19;;;;;;;6.18;4.68;;;;;;;14.65;100.00;100123.00;5034252;28;20020;-73
2023/07/05 01:21:21;;;;;;;6.72;5.15;;;;;;;14.62;100.00;100121.41;5035798;28;20082;-73
2023/07/05 01:23:56;;;;;;;6.35;4.57;;;;;;;14.65;100.00;100109.63;5028533;28;20467;-70
2023/07/05 01:26:28;;;;;;;7.70;4.68;;;;;;;14.69;100.00;100108.41;5049904;28;20060;-72
2023/07/05 01:29:07;;;;;;;6.63;5.20;;;;;;;14.69;100.00;100100.38;5028311;28;20028;-71
2023/07/05 01:32:03;;;;;;;5.03;3.83;;;;;;;14.68;100.00;100106.72;5037869;28;20071;-70
2023/07/05 01:34:31;;;;;;;4.68;4.15;;;;;;;14.71;100.00;100111.78;4992587;28;20033;-72
2023/07/05 01:36:57;;;;;;;4.90;4.40;;;;;;;14.70;100.00;100116.31;4991673;28;20046;-72
2023/07/05 01:39:22;;;;;;;4.50;4.10;;;;;;;14.71;100.00;100109.13;4983650;28;20038;-71
2023/07/05 01:41:48;;;;;;;5.65;4.22;;;;;;;14.69;100.00;100114.63;4989100;28;20038;-72
2023/07/05 01:44:16;;;;;;;4.75;3.97;;;;;;;14.66;100.00;100109.50;4982276;28;20088;-72
2023/07/05 01:47:01;;;;;;;6.25;4.15;;;;;;;14.66;100.00;100109.50;4996431;28;20042;-73
2023/07/05 01:49:44;;;;;;;4.28;3.47;;;;;;;14.72;100.00;100108.16;4998654;28;20594;-71
2023/07/05 01:52:27;;;;;;;4.60;3.67;;;;;;;14.66;100.00;100122.03;4992419;28;20084;-71
2023/07/05 01:55:01;;;;;;;4.35;3.40;;;;;;;14.62;100.00;100123.25;4997076;28;20109;-70
2023/07/05 01:57:36;;;;;;;4.75;3.60;;;;;;;14.59;100.00;100112.78;4990973;28;20176;-72
2023/07/05 02:00:07;;;;;;;3.95;3.28;;;;;;;14.56;100.00;100126.44;4985932;28;20061;-68
2023/07/05 02:02:41;;;;;;;3.72;3.25;;;;;;;14.51;100.00;100136.66;4987806;28;20643;-69
2023/07/05 02:05:09;;;;;;;3.42;2.80;;;;;;;14.44;100.00;100144.28;4987372;28;20042;-73
2023/07/05 02:07:35;;;;;;;5.05;3.03;;;;;;;14.41;100.00;100147.19;5002931;28;20082;-72
2023/07/05 02:10:03;;;;;;;5.43;3.08;;;;;;;14.35;100.00;100148.53;4994233;28;20030;-69
2023/07/05 02:12:29;;;;;;;4.20;3.05;;;;;;;14.31;100.00;100164.94;5031632;28;20055;-71
2023/07/05 02:14:55;;;;;;;3.63;2.47;;;;;;;14.18;100.00;100171.22;5040309;28;20021;-72
2023/07/05 02:17:23;;;;;;;2.30;2.10;;;;;;;13.97;100.00;100188.06;5039887;28;20107;-73
2023/07/05 02:19:48;;;;;;;3.83;2.63;;;;;;;13.83;100.00;100197.97;5043629;28;20025;-73
2023/07/05 02:22:14;;;;;;;2.90;2.45;;;;;;;13.69;100.00;100215.03;5040823;28;20029;-72
2023/07/05 02:24:40;;;;;;;3.40;2.50;;;;;;;13.62;100.00;100220.94;5044371;28;20071;-71
2023/07/05 02:27:06;;;;;;;3.63;2.60;;;;;;;13.47;100.00;100214.91;5033017;28;20033;-73
2023/07/05 02:29:32;;;;;;;3.92;2.53;;;;;;;13.37;100.00;100222.72;5043877;28;20025;-68
2023/07/05 02:31:58;;;;;;;3.90;2.60;;;;;;;13.27;100.00;100239.56;5036367;28;20036;-72
2023/07/05 02:34:24;;;;;;;2.95;2.63;;;;;;;13.20;100.00;100228.41;5036604;28;20457;-72
2023/07/05 02:36:49;;;;;;;3.15;2.72;;;;;;;13.10;100.00;100227.38;5033094;28;20026;-71
2023/07/05 02:39:15;;;;;;;2.83;2.45;;;;;;;13.17;100.00;100229.50;5032239;28;20025;-70
2023/07/05 02:41:40;;;;;;;3.63;2.63;;;;;;;13.13;100.00;100240.53;5040471;28;20029;-70
2023/07/05 02:44:05;;;;;;;3.42;3.10;;;;;;;13.18;100.00;100243.72;5036440;28;20028;-72
2023/07/05 02:46:35;;;;;;;3.30;2.50;;;;;;;13.23;100.00;100238.91;5042010;28;20045;-72
2023/07/05 02:49:03;;;;;;;3.42;2.42;;;;;;;13.11;100.00;100240.59;5040246;28;20036;-71
2023/07/05 02:51:28;;;;;;;4.50;3.30;;;;;;;13.06;100.00;100239.22;5031644;28;20036;-70
2023/07/05 02:53:54;;;;;;;3.78;3.00;;;;;;;13.02;100.00;100235.06;5043095;28;20020;-70
2023/07/05 02:56:20;;;;;;;4.22;3.20;;;;;;;13.02;100.00;100235.06;5040245;28;20068;-72
2023/07/05 02:58:45;;;;;;;4.38;2.90;;;;;;;12.99;100.00;100236.13;5041081;28;20053;-73
2023/07/05 03:01:11;;;;;;;4.60;3.40;;;;;;;12.93;100.00;100239.25;5044458;28;20040;-72
2023/07/05 03:03:36;;;;;;;3.70;3.25;;;;;;;12.93;100.00;100236.56;5045679;28;20024;-68
2023/07/05 03:06:02;;;;;;;4.90;3.58;;;;;;;12.87;100.00;100242.34;5040428;28;20044;-71
2023/07/05 03:08:28;;;;;;;5.05;3.72;;;;;;;12.82;100.00;100233.78;5045712;28;20036;-71
2023/07/05 03:10:58;;;;;;;4.72;3.60;;;;;;;12.87;100.00;100253.88;5043364;28;20029;-69
2023/07/05 03:13:28;;;;;;;5.25;4.22;;;;;;;12.79;100.00;100244.69;5054653;28;20033;-65
2023/07/05 03:15:53;;;;;;;6.10;4.03;;;;;;;12.84;100.00;100234.56;5053626;28;20100;-69
2023/07/05 03:18:19;;;;;;;4.65;3.50;;;;;;;12.83;100.00;100247.06;5058172;28;20029;-71
2023/07/05 03:20:48;;;;;;;6.60;3.72;;;;;;;12.85;100.00;100246.94;5051773;28;20112;-68
2023/07/05 03:23:14;;;;;;;4.43;3.70;;;;;;;12.84;100.00;100248.75;5059319;28;20039;-69
2023/07/05 03:25:40;;;;;;;6.32;4.05;;;;;;;12.98;100.00;100242.44;5053325;28;20033;-68
2023/07/05 03:28:06;;;;;;;4.28;3.88;;;;;;;13.04;100.00;100243.81;5056807;28;20064;-68
2023/07/05 03:30:33;;;;;;;4.30;3.80;;;;;;;12.99;100.00;100241.47;5047680;28;20052;-70
2023/07/05 03:32:59;;;;;;;4.75;3.72;;;;;;;12.96;100.00;100242.56;5045104;28;20104;-68
2023/07/05 03:35:24;;;;;;;5.57;4.50;;;;;;;13.00;100.00;100240.53;5033179;28;20014;-71
2023/07/05 03:37:49;;;;;;;4.72;4.05;;;;;;;12.93;100.00;100253.44;5034742;28;20546;-69
2023/07/05 03:40:15;;;;;;;6.75;4.30;;;;;;;12.94;100.00;100240.94;5030189;28;20502;-66
2023/07/05 03:42:40;;;;;;;6.13;4.03;;;;;;;12.93;100.00;100258.78;5042561;28;20032;-70
2023/07/05 03:45:06;;;;;;;7.13;4.53;;;;;;;12.99;100.00;100246.81;5034604;28;20076;-70
2023/07/05 03:47:31;;;;;;;6.78;4.18;;;;;;;13.04;100.00;100243.81;5044329;28;20048;-67
2023/07/05 03:49:57;;;;;;;5.00;3.40;;;;;;;13.07;100.00;100251.63;5036475;28;20040;-68
2023/07/05 03:52:22;;;;;;;5.72;4.20;;;;;;;13.16;100.00;100245.63;5035891;28;20020;-73
2023/07/05 03:54:48;;;;;;;5.55;4.20;;;;;;;13.17;100.00;100236.66;5031180;28;20021;-73
2023/07/05 03:57:13;;;;;;;5.38;4.13;;;;;;;13.21;100.00;100240.81;5039194;28;20037;-69
2023/07/05 03:59:39;;;;;;;6.82;4.28;;;;;;;13.23;100.00;100238.06;5029705;28;20029;-72
2023/07/05 04:02:05;;;;;;;4.88;4.10;;;;;;;13.25;100.00;100237.00;5038489;28;20021;-72
2023/07/05 04:04:32;;;;;;;5.10;3.80;;;;;;;13.24;100.00;100243.28;5041220;28;20033;-67
2023/07/05 04:06:57;;;;;;;5.72;4.65;;;;;;;13.28;100.00;100227.91;5039370;28;20136;-69
2023/07/05 04:09:24;;;;;;;7.47;4.95;;;;;;;13.29;100.00;100230.44;5051193;28;20061;-70
2023/07/05 04:11:49;;;;;;;5.05;4.35;;;;;;;13.31;100.00;100238.38;5042154;28;20033;-73
2023/07/05 04:14:15;;;;;;;6.53;4.80;;;;;;;13.30;99.66;100234.84;5041303;28;20329;-70
2023/07/05 04:16:40;;;;;;;5.60;4.75;;;;;;;13.31;99.57;100227.69;5039720;28;20025;-73
2023/07/05 04:19:05;;;;;;;5.80;4.38;;;;;;;13.38;99.39;100239.66;5036303;28;20388;-70
2023/07/05 04:21:31;;;;;;;5.43;4.45;;;;;;;13.41;100.00;100248.28;5037886;28;20025;-67
2023/07/05 04:23:58;;;;;;;8.90;5.25;;;;;;;13.47;98.77;100247.00;5039250;28;20102;-69
2023/07/05 04:26:26;;;;;;;4.88;4.07;;;;;;;13.52;98.01;100241.31;5037540;28;20033;-71
2023/07/05 04:28:52;;;;;;;7.03;4.32;;;;;;;13.55;97.69;100249.97;5039509;28;20154;-70
2023/07/05 04:31:27;;;;;;;5.75;4.45;;;;;;;13.58;97.56;100252.41;5035995;28;20017;-68
2023/07/05 04:33:53;;;;;;;7.00;4.75;;;;;;;13.57;97.30;100260.53;5028277;28;20147;-69
2023/07/05 04:36:18;;;;;;;7.22;4.50;;;;;;;13.56;97.24;100256.16;5038446;28;20407;-72
2023/07/05 04:38:44;;;;;;;4.93;4.10;;;;;;;13.60;95.66;100257.66;5034821;28;20020;-70
2023/07/05 04:41:09;;;;;;;6.25;4.07;;;;;;;13.58;95.32;100257.75;5035630;28;20039;-72
2023/07/05 04:43:35;;;;;;;5.78;4.20;;;;;;;13.58;95.62;100263.09;5026169;28;20033;-69
2023/07/05 04:46:03;;;;;;;5.70;4.47;;;;;;;13.60;95.61;100253.16;5033076;28;20052;-68
2023/07/05 04:48:30;;;;;;;6.13;4.35;;;;;;;13.60;93.84;100263.84;5030409;28;20471;-72
2023/07/05 04:50:57;;;;;;;4.63;3.97;;;;;;;13.65;94.06;100276.88;5038472;28;20033;-69
2023/07/05 04:53:24;;;;;;;6.25;4.63;;;;;;;13.63;92.96;100252.09;5036626;28;20606;-71
2023/07/05 04:55:52;;;;;;;5.28;4.30;;;;;;;13.65;92.30;100263.53;5039493;28;20033;-71
2023/07/05 04:58:18;;;;;;;9.43;4.53;;;;;;;13.64;92.48;100254.66;5036050;28;20029;-68
2023/07/05 05:00:49;;;;;;;5.32;4.22;;;;;;;13.71;92.44;100260.41;5029805;28;20494;-72
2023/07/05 05:03:21;;;;;;;7.63;4.30;;;;;;;13.77;92.03;100249.25;5035109;28;20089;-70
2023/07/05 05:05:50;;;;;;;6.18;4.60;;;;;;;13.86;90.47;100256.59;5027606;28;20044;-72
2023/07/05 05:08:15;;;;;;;5.93;4.07;;;;;;;13.91;91.24;100258.91;5038591;28;20029;-72
2023/07/05 05:10:41;;;;;;;4.90;4.22;;;;;;;13.89;89.96;100253.69;5036060;28;20052;-70
2023/07/05 05:13:08;;;;;;;5.97;3.92;;;;;;;13.92;88.44;100253.47;5036177;28;20057;-69
2023/07/05 05:15:37;;;;;;;8.02;4.18;;;;;;;13.93;87.86;100259.69;5041270;28;20506;-69
2023/07/05 05:18:03;;;;;;;5.80;4.13;;;;;;;13.88;88.86;100270.72;5043062;28;20033;-72
2023/07/05 05:20:30;;;;;;;5.57;3.80;;;;;;;13.90;88.32;100275.94;5036081;28;20118;-70
2023/07/05 05:22:57;;;;;;;6.95;4.03;;;;;;;13.95;87.43;100285.34;5026246;28;20025;-71
2023/07/05 05:25:23;;;;;;;6.50;4.10;;;;;;;13.89;87.63;100274.25;5024937;28;20399;-69
2023/07/05 05:27:48;;;;;;;5.63;3.88;;;;;;;13.81;87.73;100284.66;5028194;28;20025;-71
2023/07/05 05:30:13;;;;;;;4.43;3.97;;;;;;;13.78;87.11;100282.19;5037355;28;20055;-70
2023/07/05 05:32:39;;;;;;;4.88;3.55;;;;;;;13.76;88.02;100278.78;5047730;28;20024;-66
2023/07/05 05:35:05;;;;;;;5.95;3.88;;;;;;;13.80;88.92;100278.44;5039439;28;20025;-71
2023/07/05 05:37:34;;;;;;;5.43;4.22;;;;;;;13.81;88.52;100268.59;5029257;28;20036;-66
2023/07/05 05:39:59;;;;;;;5.75;3.40;;;;;;;13.87;87.91;100258.28;5030963;28;20037;-69
2023/07/05 05:42:25;;;;;;;7.75;3.78;;;;;;;13.92;87.25;100268.69;5035447;28;20029;-68
2023/07/05 05:44:50;;;;;;;7.05;4.10;;;;;;;13.94;86.61;100285.47;5036330;28;20597;-71
2023/07/05 05:47:15;;;;;;;5.15;3.45;;;;;;;13.95;87.52;100271.09;5031563;28;20037;-71
2023/07/05 05:49:41;;;;;;;5.55;3.50;;;;;;;13.97;86.58;100287.06;5029382;28;20056;-69
2023/07/05 05:52:07;;;;;;;6.00;3.50;;;;;;;13.98;86.19;100288.75;5039567;28;20059;-70
2023/07/05 05:54:33;;;;;;;6.28;3.58;;;;;;;14.00;86.24;100281.47;5029217;28;20116;-67
2023/07/05 05:56:58;;;;;;;5.25;3.60;;;;;;;14.02;86.03;100290.25;5039431;28;20021;-72
2023/07/05 05:59:24;;;;;;;6.32;3.92;;;;;;;14.06;86.83;100303.28;5033137;28;20494;-68
2023/07/05 06:01:51;;;;;;;4.78;3.70;;;;;;;14.03;85.48;100278.56;5035067;28;20394;-69
2023/07/05 06:04:16;;;;;;;5.30;3.70;;;;;;;13.97;86.02;100295.09;5040131;28;20124;-72
2023/07/05 06:06:42;;;;;;;4.95;3.40;;;;;;;13.94;85.36;100323.75;5038608;28;20294;-69
2023/07/05 06:09:08;;;;;;;6.93;3.40;;;;;;;13.90;86.26;100311.56;5037609;28;20560;-73
2023/07/05 06:11:33;;;;;;;4.30;3.15;;;;;;;13.93;85.25;100310.50;5032131;28;20025;-68
2023/07/05 06:13:58;;;;;;;4.57;3.25;;;;;;;13.83;86.33;100317.47;5039025;28;20120;-69
2023/07/05 06:16:24;;;;;;;5.90;3.15;;;;;;;13.83;86.21;100323.69;5040330;28;20036;-72
2023/07/05 06:18:49;;;;;;;4.03;3.03;;;;;;;13.95;85.64;100352.22;5036583;28;20024;-71
2023/07/05 06:21:14;;;;;;;7.35;3.20;;;;;;;13.88;85.95;100320.69;5035536;28;20766;-69
2023/07/05 06:23:40;;;;;;;4.45;3.40;;;;;;;13.83;86.31;100328.19;5039874;28;20075;-69
2023/07/05 06:26:05;;;;;;;4.68;3.50;;;;;;;13.83;86.27;100349.59;5034827;28;20334;-71
2023/07/05 06:28:31;;;;;;;5.82;3.40;;;;;;;13.83;85.62;100344.22;5033630;28;20509;-68
2023/07/05 06:31:03;;;;;;;8.00;3.83;;;;;;;13.82;85.96;100355.91;5028252;28;20025;-70
2023/07/05 06:33:28;;;;;;;6.30;3.15;;;;;;;14.01;85.40;100356.28;5033273;28;20028;-71
2023/07/05 06:35:54;;;;;;;4.88;3.20;;;;;;;14.12;84.47;100356.34;5034008;28;20060;-70
2023/07/05 06:38:19;;;;;;;6.22;3.53;;;;;;;14.35;83.97;100351.97;5030643;28;20045;-67
2023/07/05 06:40:50;;;;;;;5.13;3.17;;;;;;;14.54;82.96;100356.84;5027854;28;20032;-70
2023/07/05 06:43:16;;;;;;;4.38;2.90;;;;;;;14.74;80.52;100347.28;5036313;28;20035;-68
2023/07/05 06:45:41;;;;;;;5.20;3.25;;;;;;;14.93;79.76;100361.00;5038231;28;20049;-71
2023/07/05 06:48:06;;;;;;;4.38;2.72;;;;;;;15.12;79.79;100371.16;5045002;28;20032;-67
2023/07/05 06:50:33;;;;;;;4.93;3.10;;;;;;;15.11;78.96;100357.88;5037875;28;20036;-73
2023/07/05 06:52:58;;;;;;;4.07;2.50;;;;;;;15.21;78.43;100374.94;5043798;28;20271;-70
2023/07/05 06:55:23;;;;;;;4.43;2.63;;;;;;;15.40;77.30;100382.41;5027972;28;20028;-71
2023/07/05 06:57:49;;;;;;;5.20;2.90;;;;;;;15.49;75.60;100378.16;5028174;28;20032;-72
2023/07/05 07:00:14;;;;;;;4.20;2.47;;;;;;;15.68;75.21;100370.41;5039294;28;20108;-69
2023/07/05 07:02:40;;;;;;;3.65;2.63;;;;;;;15.67;73.57;100379.41;5039539;28;20580;-70
2023/07/05 07:05:05;;;;;;;4.53;2.85;;;;;;;15.69;73.95;100380.16;5037218;28;20269;-70
2023/07/05 07:07:31;;;;;;;5.53;2.70;;;;;;;15.69;71.55;100380.16;5040340;28;20021;-67
2023/07/05 07:09:56;;;;;;;4.38;2.97;;;;;;;15.54;72.83;100406.31;5040800;28;20056;-70
2023/07/05 07:12:22;;;;;;;5.28;2.72;;;;;;;15.34;72.97;100397.16;5040829;28;20593;-71
2023/07/05 07:14:47;;;;;;;3.15;2.38;;;;;;;15.21;73.50;100441.97;5037213;28;20513;-72
2023/07/05 07:17:12;;;;;;;3.80;2.15;;;;;;;15.01;73.20;100405.97;5032566;28;20021;-68
2023/07/05 07:19:38;;;;;;;5.75;2.22;;;;;;;14.98;74.15;100418.75;5047046;28;20467;-70
2023/07/05 07:22:05;;;;;;;2.80;2.10;;;;;;;15.06;74.19;100421.72;5040801;28;20116;-70
2023/07/05 07:24:31;;;;;;;4.65;2.25;;;;;;;15.45;74.24;100426.66;5039908;28;20047;-67
2023/07/05 07:26:56;;;;;;;4.47;2.38;;;;;;;15.59;72.08;100424.72;5045238;28;20032;-70
2023/07/05 07:29:22;;;;;;;4.00;2.50;;;;;;;15.69;71.71;100425.75;5040204;28;20017;-70
2023/07/05 07:31:47;;;;;;;4.70;2.40;;;;;;;15.74;72.07;100433.44;5053089;28;20030;-70
2023/07/05 07:34:13;;;;;;;3.92;2.42;;;;;;;15.39;73.36;100439.72;5035745;28;20071;-70
2023/07/05 07:36:39;;;;;;;4.03;2.17;;;;;;;14.88;77.20;100440.91;5041999;28;20017;-68
2023/07/05 07:39:04;;;;;;;4.97;2.40;;;;;;;14.40;78.73;100451.56;5047184;28;20056;-70
2023/07/05 07:41:35;;;;;;;3.72;2.72;;;;;;;14.18;81.58;100475.50;5044540;28;20028;-69
2023/07/05 07:44:04;;;;;;;4.05;2.45;;;;;;;14.04;82.96;100472.94;5035188;28;20076;-67
2023/07/05 07:46:34;;;;;;;4.35;2.63;;;;;;;13.71;86.46;100487.75;5044310;28;20466;-71
2023/07/05 07:49:02;;;;;;;5.50;3.05;;;;;;;13.37;90.95;100491.84;5042796;28;20035;-70
2023/07/05 07:51:33;;;;;;;5.05;3.63;;;;;;;13.38;90.23;100493.59;5043353;28;20029;-71
2023/07/05 07:53:59;;;;;;;3.55;2.78;;;;;;;13.46;90.33;100491.25;5038923;28;20043;-69
2023/07/05 07:56:26;;;;;;;3.55;2.95;;;;;;;13.48;90.56;100491.13;5042087;28;20514;-71
2023/07/05 07:58:54;;;;;;;4.15;2.78;;;;;;;13.63;88.98;100490.94;5040673;28;20519;-73
2023/07/05 08:01:25;;;;;;;4.13;2.53;;;;;;;13.87;89.53;100501.72;5031711;28;20047;-69
2023/07/05 08:03:51;;;;;;;6.72;3.03;;;;;;;14.06;88.32;100492.44;5037444;28;20423;-72
2023/07/05 08:06:17;;;;;;;4.28;2.20;;;;;;;14.23;84.96;100486.72;5036962;28;20021;-69
2023/07/05 08:08:42;;;;;;;3.88;2.67;;;;;;;14.43;84.08;100478.13;5034384;28;20584;-71
2023/07/05 08:11:08;;;;;;;6.25;2.63;;;;;;;14.85;82.00;100480.47;5041326;28;20033;-69
2023/07/05 08:13:35;;;;;;;4.35;2.20;;;;;;;15.39;78.07;100482.63;5035456;28;20040;-73
2023/07/05 08:16:01;;;;;;;5.18;2.40;;;;;;;16.31;76.76;100494.22;5035940;28;20361;-68
2023/07/05 08:18:28;;;;;;;4.75;2.17;;;;;;;16.60;71.28;100495.41;5029467;28;20036;-70
2023/07/05 08:20:53;;;;;;;5.35;2.53;;;;;;;16.49;70.98;100483.81;5041196;28;20028;-71
2023/07/05 08:23:19;;;;;;;4.65;2.50;;;;;;;16.47;70.70;100496.50;5037889;28;20045;-73
2023/07/05 08:25:45;;;;;;;5.50;2.50;;;;;;;16.80;69.70;100504.53;5041882;28;20491;-70
2023/07/05 08:28:13;;;;;;;5.50;2.85;;;;;;;17.09;68.21;100503.94;5038094;28;20136;-71
2023/07/05 08:30:40;;;;;;;6.07;2.70;;;;;;;17.05;66.29;100513.25;5037561;28;20421;-72
2023/07/05 08:33:06;;;;;;;4.95;2.50;;;;;;;17.16;67.34;100530.19;5035665;28;20091;-71
2023/07/05 08:35:33;;;;;;;5.47;2.97;;;;;;;17.93;64.80;100526.41;5039338;28;20032;-71
2023/07/05 08:37:58;;;;;;;5.85;2.50;;;;;;;18.14;62.34;100505.69;5043252;28;20540;-73
2023/07/05 08:40:31;;;;;;;3.55;2.38;;;;;;;18.42;61.60;100524.78;5035787;28;20033;-68
2023/07/05 08:43:06;;;;;;;7.18;3.20;;;;;;;18.09;64.53;100534.00;5036085;28;20129;-71
2023/07/05 08:45:39;;;;;;;5.97;2.60;;;;;;;17.39;66.94;100543.59;5039273;28;20067;-71
2023/07/05 08:48:07;;;;;;;6.22;2.38;;;;;;;16.95;68.05;100547.28;5034567;28;20037;-69
2023/07/05 08:50:42;;;;;;;4.82;2.88;;;;;;;16.62;69.90;100554.38;5033798;28;20025;-71
2023/07/05 08:53:14;;;;;;;5.78;2.70;;;;;;;16.46;69.07;100556.59;5036054;28;20024;-70
2023/07/05 08:55:52;;;;;;;3.75;2.80;;;;;;;16.56;68.69;100571.84;5037657;28;20231;-73
2023/07/05 08:58:38;;;;;;;9.27;3.03;;;;;;;17.67;66.55;100575.22;5043945;28;20127;-67
2023/07/05 09:01:09;;;;;;;4.50;2.47;;;;;;;19.38;60.38;100570.00;5043666;28;20032;-72
2023/07/05 09:03:35;;;;;;;4.68;2.60;;;;;;;20.55;55.24;100543.66;5054891;28;20058;-71
2023/07/05 09:06:13;;;;;;;3.97;2.28;;;;;;;20.20;56.31;100576.78;5031818;28;20029;-67
2023/07/05 09:09:01;;;;;;;6.95;2.60;;;;;;;20.13;57.07;100576.50;5033830;28;20048;-68
2023/07/05 09:11:41;;;;;;;6.43;2.60;;;;;;;20.38;55.52;100584.97;5036617;28;20107;-66
2023/07/05 09:14:22;;;;;;;7.55;2.72;;;;;;;19.86;54.45;100582.69;5030856;28;20036;-67
2023/07/05 09:17:10;;;;;;;4.88;2.40;;;;;;;20.47;55.19;100596.75;5043846;28;20024;-72
2023/07/05 09:19:40;;;;;;;5.10;2.70;;;;;;;20.47;52.38;100607.56;5040830;28;20425;-68
2023/07/05 09:22:11;;;;;;;4.78;2.65;;;;;;;20.43;55.37;100603.44;5031039;28;20021;-74
2023/07/05 09:24:40;;;;;;;6.53;3.17;;;;;;;20.24;52.76;100602.50;5036995;28;20044;-73
2023/07/05 09:27:16;;;;;;;5.30;2.50;;;;;;;20.18;54.60;100613.88;5041158;28;20020;-72
2023/07/05 09:29:47;;;;;;;6.00;2.30;;;;;;;20.54;53.84;100630.34;5031224;28;20036;-69
2023/07/05 09:32:18;;;;;;;5.65;2.65;;;;;;;20.22;53.33;100618.00;5030334;28;20099;-69
2023/07/05 09:34:48;;;;;;;3.67;2.10;;;;;;;20.41;52.28;100617.13;5036592;28;20028;-69
2023/07/05 09:37:23;;;;;;;4.70;2.30;;;;;;;20.70;52.36;100654.91;5041287;28;20475;-66
2023/07/05 09:40:18;;;;;;;3.55;2.17;;;;;;;21.31;50.42;100643.47;5034507;28;20025;-70
2023/07/05 09:42:58;;;;;;;3.88;1.98;;;;;;;22.23;47.02;100631.50;5038374;28;20115;-72
2023/07/05 09:45:25;;;;;;;3.70;1.90;;;;;;;22.34;45.64;100644.81;5046064;28;20035;-71
2023/07/05 09:47:57;;;;;;;5.95;2.10;;;;;;;21.78;46.53;100656.88;5042004;28;20616;-70
2023/07/05 09:50:22;;;;;;;4.63;2.13;;;;;;;21.29;47.35;100640.06;5039765;28;20037;-72
2023/07/05 09:52:51;;;;;;;2.92;1.98;;;;;;;20.92;47.59;100650.97;5049689;28;20036;-68
2023/07/05 09:55:19;;;;;;;4.18;2.15;;;;;;;20.66;47.69;100658.06;5056178;28;20028;-69
2023/07/05 09:57:45;;;;;;;4.07;2.00;;;;;;;20.06;49.90;100661.81;5044336;28;20116;-73
2023/07/05 10:00:37;;;;;;;3.78;1.90;;;;;;;19.89;51.46;100665.25;5034087;28;20052;-73
2023/07/05 10:03:12;;;;;;;4.55;2.30;;;;;;;21.02;48.76;100667.13;5024488;28;20251;-70
2023/07/05 10:05:38;;;;;;;4.57;2.17;;;;;;;20.44;48.52;100672.72;5035080;28;20077;-71
2023/07/05 10:08:14;;;;;;;5.28;2.30;;;;;;;19.66;51.02;100675.50;5032262;28;20086;-68
2023/07/05 10:10:40;;;;;;;4.50;1.80;;;;;;;20.53;47.88;100680.00;5026643;28;20051;-69
2023/07/05 10:13:19;;;;;;;6.68;1.92;;;;;;;21.29;46.32;100691.50;5046641;28;20024;-67
2023/07/05 10:15:50;;;;;;;3.97;2.10;;;;;;;20.27;48.23;100701.34;5042786;28;20057;-70
2023/07/05 10:18:27;;;;;;;4.35;2.17;;;;;;;21.84;47.99;100683.31;5042955;28;20033;-67
2023/07/05 10:20:52;;;;;;;4.70;2.00;;;;;;;22.21;44.95;100704.00;5037548;28;20082;-68
2023/07/05 10:23:23;;;;;;;5.82;2.17;;;;;;;21.86;46.00;100707.53;5037464;28;20025;-66
2023/07/05 10:25:51;;;;;;;4.07;2.20;;;;;;;22.16;45.13;100695.50;5041283;28;20029;-70
2023/07/05 10:28:25;;;;;;;9.38;2.65;;;;;;;23.42;40.96;100732.09;5035395;28;20460;-72
2023/07/05 10:30:59;;;;;;;3.60;1.70;;;;;;;25.22;38.50;100718.56;5038284;28;20060;-70
2023/07/05 10:33:30;;;;;;;4.68;1.90;;;;;;;24.05;38.76;100738.88;5037227;28;20061;-70
2023/07/05 10:36:02;;;;;;;3.85;1.75;;;;;;;22.09;42.29;100735.03;5030120;28;20083;-70
2023/07/05 10:38:40;;;;;;;5.28;1.90;;;;;;;22.96;43.29;100746.97;5050522;28;20378;-70
2023/07/05 10:41:11;;;;;;;5.95;1.58;;;;;;;25.17;38.61;100740.03;5044092;28;20094;-72
2023/07/05 10:43:37;;;;;;;6.85;2.25;;;;;;;27.16;35.42;100741.84;5039839;28;20365;-69
2023/07/05 10:46:02;;;;;;;5.13;1.90;;;;;;;28.01;31.70;100732.19;5036592;28;20068;-67
2023/07/05 10:48:40;;;;;;;5.53;1.95;;;;;;;27.41;32.26;100747.00;5039436;28;20078;-71
2023/07/05 10:51:16;;;;;;;6.60;1.95;;;;;;;26.99;32.88;100748.50;5042284;28;20163;-70
2023/07/05 10:53:46;;;;;;;3.47;1.80;;;;;;;27.68;31.33;100759.97;5039448;28;20064;-71
2023/07/05 10:56:20;;;;;;;7.20;1.70;;;;;;;27.46;31.69;100769.13;5042661;28;20032;-70
2023/07/05 10:59:01;;;;;;;4.35;1.65;;;;;;;25.40;34.32;100781.81;5036240;28;20036;-70
2023/07/05 11:01:33;;;;;;;4.07;1.98;;;;;;;23.39;37.97;100784.00;5038861;28;20037;-69
2023/07/05 11:04:06;;;;;;;3.08;1.40;;;;;;;22.94;39.20;100792.41;5040470;28;20029;-68
2023/07/05 11:06:35;;;;;;;3.60;1.63;;;;;;;24.84;35.33;100780.91;5034302;28;20080;-67
2023/07/05 11:09:02;;;;;;;2.42;1.30;;;;;;;24.74;35.39;100780.22;5038307;28;20032;-66
2023/07/05 11:11:37;;;;;;;4.30;2.05;;;;;;;26.23;33.60;100774.91;5039165;28;20116;-71
2023/07/05 11:14:07;;;;;;;4.00;1.52;;;;;;;26.71;31.40;100781.91;5038585;28;20110;-70
2023/07/05 11:16:33;;;;;;;6.53;1.75;;;;;;;25.10;34.69;100794.34;5035851;28;20128;-67
2023/07/05 11:19:02;;;;;;;3.92;1.85;;;;;;;24.58;35.56;100792.00;5043555;28;20426;-67
2023/07/05 11:21:38;;;;;;;6.22;1.90;;;;;;;23.81;37.15;100786.75;5037885;28;20029;-68
2023/07/05 11:24:06;;;;;;;5.18;1.75;;;;;;;24.07;35.94;100811.09;5037342;28;20186;-71
2023/07/05 11:26:42;;;;;;;6.75;1.83;;;;;;;25.82;34.10;100803.28;5037416;28;20122;-68
2023/07/05 11:29:27;;;;;;;2.53;1.38;;;;;;;26.26;31.89;100788.19;5036133;28;20106;-67